Lulu Pass Weather Station

STATION TAKEN DOWN FOR SEASON

This weather station provides temperature, relative humidity (RH), wind speed, gust or max wind speed, and wind direction at 10014ft near Lulu Pass at the head of Fisher Creek. This data can be used with temperature and precipitation data from the Fisher Creek SNOTEL site.

This weather station was purchased by the Friends of the Avalanche Center.

If the data has not been updated recently you can view it directly on datagarrison.com

Elevation
10014ft
Jump to table bottom
Date Time Temperature
deg F
RH, % Wind Speed Wind Gust Wind Direction
04/23/21 20:00 78.9 25 2 8 W - 291
04/23/21 19:00 66.3 31 4 14 W - 291
04/23/21 18:00 56.9 30 5 14 W - 292
04/23/21 17:00 46.2 51 3 18 NW - 300
04/23/21 16:00 44.9 88 0 0 NW - 305
04/23/21 15:00 45.0 97 0 4 W - 270
04/23/21 14:00 46.0 97 0 0 W - 258
04/23/21 13:00 46.6 97 0 0 W - 258
04/23/21 12:00 44.7 99 0 2 NW - 298
04/23/21 11:00 32.9 98 0 3 N - 348
04/23/21 10:00 24.4 96 0 10 SW - 211
04/23/21 09:00 18.8 94 11 14 NW - 333
04/23/21 08:00 18.2 95 10 13 N - 348
04/23/21 07:00 17.7 95 9 10 N - 0
04/23/21 06:00 17.1 95 4 9 N - 345
04/23/21 05:00 19.2 96 5 10 S - 195
04/23/21 04:00 19.6 96 4 7 S - 180
04/23/21 03:00 19.4 95 4 6 SE - 154
04/23/21 02:00 19.6 95 6 11 S - 163
04/23/21 01:00 20.2 96 7 12 SE - 154
04/23/21 00:00 20.8 96 8 15 S - 164
04/22/21 23:00 21.1 96 4 13 S - 168
04/22/21 22:00 21.2 96 2 8 N - 18
04/22/21 21:00 21.9 95 2 10 E - 84
04/22/21 20:00 21.9 96 5 8 N - 343
04/22/21 19:00 22.4 96 3 7 NW - 317
04/22/21 18:00 24.1 88 7 13 N - 340
04/22/21 17:00 25.4 71 8 17 N - 350
04/22/21 16:00 28.7 48 7 19 W - 282
04/22/21 15:00 31.5 36 8 17 W - 267
04/22/21 14:00 32.2 35 7 16 W - 285
04/22/21 13:00 29.6 41 8 18 SW - 218
04/22/21 12:00 28.9 44 7 17 W - 268
04/22/21 11:00 27.7 48 10 20 NW - 307
04/22/21 10:00 24.4 52 14 20 NW - 319
04/22/21 09:00 22.3 54 14 21 NW - 321
04/22/21 08:00 20.7 53 12 17 NW - 330
04/22/21 07:00 19.2 53 12 15 NW - 324
04/22/21 06:00 18.1 52 14 18 NW - 331
04/22/21 05:00 18.8 49 17 19 NW - 329
04/22/21 04:00 18.4 49 16 20 NW - 333
04/22/21 03:00 18.7 51 11 14 NW - 337
04/22/21 02:00 19.6 46 10 12 NW - 337
04/22/21 01:00 19.8 45 8 10 NW - 337
04/22/21 00:00 18.8 48 5 8 NW - 321
04/21/21 23:00 20.2 47 4 8 NW - 327
04/21/21 22:00 18.9 51 3 8 W - 256
04/21/21 21:00 19.1 74 8 11 SE - 143
04/21/21 20:00 19.9 67 7 11 SE - 154
04/21/21 19:00 25.0 39 3 6 SW - 230